Decoded Metar for KVOK (VOLK/CAMP DOUGLA in WI, USA) (IATA:VOK) | Meteo·Mobile Aviation Weather
aviador You're here:

KVOK Decoded Metar

VOLK/CAMP DOUGLA in WI, USA
Report Time2018-11-19 21:56:00
UTC Time2018-11-19 22:12:19
Flight Rules mvfr MVFR
Wind320° at 09 kt
W.Decomp.*RWY 27: 5.8 kt HW 6.9 kt RCW
W.Rank320° ranks 16
Current wind is above 320° avg. (7.8)
Visibility9999 m
Phenomena:N/A
Clouds:Overcast 026 Hf
Expected CloudBase > 2,400 ft AGL from Temp-Dew spread
Ceiling2,600 ft
Temp-2°C (ISA -15)
Dew Point-8°C (64% RH)
AAT-8.1°C
QNH1018 hPa
Density Alt-1,073 ft
Elevation909 ft
Report Wrong Elevation
Raw Report
KVOK 192156Z AUTO 32009KT 10SM OVC026 M02/M08 A3006 RMK AO2 SLP196
T10221079=

Extra information for KVOK:More info

Metar Taf Metar & Taf Last 4 Metars F.Rules Stats Wind Profile Meteogram Temp Stats Airport Information Weather charts Add Link Nearby VenuesMetar ALERT Operation Metar Decoded Social comments

AIRNAV info for KVOK